createdAt,value
2019-04-06T00:01:17.411Z,84.97
2019-04-06T00:02:52.161Z,86.21
2019-04-06T00:04:26.784Z,85.16
2019-04-06T00:06:01.481Z,85.30
2019-04-06T00:07:36.252Z,85.92
2019-04-06T00:09:10.934Z,86.90
2019-04-06T00:10:46.063Z,86.63
2019-04-06T00:12:20.734Z,86.71
2019-04-06T00:13:55.540Z,86.23
2019-04-06T00:15:30.273Z,86.10
2019-04-06T00:17:05.020Z,86.00
2019-04-06T00:18:39.671Z,86.65
2019-04-06T00:20:14.417Z,86.63
2019-04-06T00:21:49.060Z,86.57
2019-04-06T00:23:23.819Z,86.72
2019-04-06T00:24:58.465Z,86.69
2019-04-06T00:26:33.161Z,86.72
2019-04-06T00:28:07.997Z,85.86
2019-04-06T00:29:42.710Z,86.14
2019-04-06T00:31:42.316Z,86.69
2019-04-06T00:33:18.070Z,87.10
2019-04-06T00:34:52.858Z,86.78
2019-04-06T00:36:27.618Z,86.31
2019-04-06T00:38:02.303Z,86.43
2019-04-06T00:39:37.135Z,86.90
2019-04-06T00:41:12.925Z,87.21
2019-04-06T00:42:47.579Z,86.63
2019-04-06T00:44:22.260Z,86.14
2019-04-06T00:45:56.915Z,86.66
2019-04-06T00:47:31.538Z,86.72
2019-04-06T00:49:06.270Z,86.27
2019-04-06T00:50:40.966Z,86.59
2019-04-06T00:52:15.694Z,86.56
2019-04-06T00:53:50.418Z,86.44
2019-04-06T00:55:25.094Z,86.36
2019-04-06T00:56:59.761Z,85.53
2019-04-06T00:58:34.410Z,85.84
2019-04-06T01:00:09.543Z,85.74
2019-04-06T01:01:44.323Z,86.58
2019-04-06T01:03:19.377Z,86.66
2019-04-06T01:04:54.009Z,86.25
2019-04-06T01:06:28.660Z,85.63
2019-04-06T01:08:03.367Z,85.59
2019-04-06T01:09:38.109Z,87.01
2019-04-06T01:11:12.831Z,86.60
2019-04-06T01:12:47.497Z,86.96
2019-04-06T01:14:22.285Z,86.84
2019-04-06T01:15:56.907Z,86.99
2019-04-06T01:17:31.621Z,86.18
2019-04-06T01:19:06.324Z,86.74
2019-04-06T01:20:41.111Z,86.75
2019-04-06T01:22:16.725Z,87.24
2019-04-06T01:23:51.461Z,87.50
2019-04-06T01:25:26.198Z,86.67
2019-04-06T01:27:00.887Z,87.11
2019-04-06T01:28:35.517Z,87.62
2019-04-06T01:30:10.632Z,87.50
2019-04-06T01:31:45.351Z,87.33
2019-04-06T01:33:20.033Z,87.34
2019-04-06T01:34:54.726Z,87.44
2019-04-06T01:36:29.359Z,87.79
2019-04-06T01:38:04.045Z,87.33
2019-04-06T01:39:38.755Z,87.25
2019-04-06T01:41:13.492Z,86.74
2019-04-06T01:42:48.161Z,87.39
2019-04-06T01:44:29.126Z,87.08
2019-04-06T01:46:03.834Z,87.45
2019-04-06T01:47:38.524Z,86.91
2019-04-06T01:49:13.212Z,86.74
2019-04-06T01:50:47.892Z,87.46
2019-04-06T01:52:22.562Z,87.14
2019-04-06T01:53:57.246Z,86.70
2019-04-06T01:55:31.873Z,87.56
2019-04-06T01:57:06.538Z,87.68
2019-04-06T01:58:41.327Z,87.12
2019-04-06T02:00:16.018Z,87.17
2019-04-06T02:01:58.378Z,87.41
2019-04-06T02:03:33.012Z,86.59
2019-04-06T02:05:08.168Z,87.05
2019-04-06T02:06:42.883Z,86.65
2019-04-06T02:08:17.565Z,87.15
2019-04-06T02:09:52.322Z,87.14
2019-04-06T02:11:27.036Z,86.39
2019-04-06T02:13:01.684Z,86.10
2019-04-06T02:14:36.386Z,86.57
2019-04-06T02:16:11.081Z,86.74
2019-04-06T02:17:46.218Z,86.11
2019-04-06T02:19:20.874Z,86.26
2019-04-06T02:20:55.513Z,86.12
2019-04-06T02:22:30.183Z,86.09
2019-04-06T02:24:04.912Z,85.86
2019-04-06T02:25:39.908Z,85.22
2019-04-06T02:27:14.540Z,85.66
2019-04-06T02:28:49.250Z,85.99
2019-04-06T02:30:37.041Z,86.22
2019-04-06T02:32:26.832Z,85.71
2019-04-06T02:34:16.414Z,85.67
2019-04-06T02:36:08.727Z,85.49
2019-04-06T02:38:14.702Z,85.44
2019-04-06T02:40:14.520Z,85.65
2019-04-06T02:41:53.341Z,85.95
2019-04-06T02:43:30.677Z,85.86
2019-04-06T02:45:05.705Z,85.29
2019-04-06T02:46:40.376Z,85.75
2019-04-06T02:48:15.088Z,85.56
2019-04-06T02:49:49.977Z,85.48
2019-04-06T02:51:24.660Z,84.84
2019-04-06T02:52:59.336Z,84.92
2019-04-06T02:54:34.091Z,85.48
2019-04-06T02:56:08.742Z,86.36
2019-04-06T02:57:43.393Z,86.33
2019-04-06T02:59:18.137Z,86.31
2019-04-06T03:00:52.817Z,85.73
2019-04-06T03:02:27.497Z,85.79
2019-04-06T03:04:02.290Z,86.01
2019-04-06T03:05:37.003Z,86.21
2019-04-06T03:07:11.721Z,86.22
2019-04-06T03:08:46.489Z,86.38
2019-04-06T03:10:21.161Z,86.39
2019-04-06T03:11:55.849Z,87.06
2019-04-06T03:13:30.640Z,87.18
2019-04-06T03:15:05.860Z,87.52
2019-04-06T03:16:40.643Z,87.49
2019-04-06T03:18:15.528Z,87.95
2019-04-06T03:19:50.399Z,88.38
2019-04-06T03:21:25.103Z,88.14
2019-04-06T03:22:59.772Z,88.18
2019-04-06T03:24:34.411Z,88.50
2019-04-06T03:26:09.068Z,88.21
2019-04-06T03:27:43.724Z,87.37
2019-04-06T03:29:18.386Z,87.33
2019-04-06T03:30:53.059Z,88.36
2019-04-06T03:32:27.935Z,88.37
2019-04-06T03:34:03.091Z,87.96
2019-04-06T03:35:37.973Z,88.22
2019-04-06T03:37:12.900Z,88.20
2019-04-06T03:38:47.528Z,88.25
2019-04-06T03:40:22.202Z,88.45
2019-04-06T03:41:56.891Z,88.63
2019-04-06T03:43:31.534Z,88.98
2019-04-06T03:45:07.004Z,89.17
2019-04-06T03:46:41.743Z,89.64
2019-04-06T03:48:16.440Z,89.11
2019-04-06T03:49:51.160Z,88.97
2019-04-06T03:51:25.797Z,89.44
2019-04-06T03:53:00.486Z,89.49
2019-04-06T03:54:35.141Z,89.76
2019-04-06T03:56:09.862Z,90.17
2019-04-06T03:57:44.525Z,90.20
2019-04-06T03:59:19.162Z,90.41
2019-04-06T04:00:53.808Z,90.74
2019-04-06T04:02:28.463Z,90.80
2019-04-06T04:04:03.185Z,90.96
2019-04-06T04:05:37.832Z,91.10
2019-04-06T04:07:12.465Z,90.88
2019-04-06T04:08:47.106Z,90.88
2019-04-06T04:10:32.696Z,90.23
2019-04-06T04:12:07.372Z,90.80
2019-04-06T04:13:42.158Z,90.81
2019-04-06T04:15:16.818Z,91.09
2019-04-06T04:16:51.629Z,91.19
2019-04-06T04:18:26.339Z,90.81
2019-04-06T04:20:00.981Z,90.55
2019-04-06T04:21:38.189Z,90.65
2019-04-06T04:23:13.008Z,90.84
2019-04-06T04:24:47.765Z,90.72
2019-04-06T04:26:22.446Z,90.94
2019-04-06T04:27:57.315Z,90.93
2019-04-06T04:29:31.983Z,90.89
2019-04-06T04:31:06.644Z,90.70
2019-04-06T04:32:41.303Z,91.14
2019-04-06T04:34:15.940Z,91.14
2019-04-06T04:35:50.635Z,90.71
2019-04-06T04:37:25.308Z,91.36
2019-04-06T04:38:59.973Z,91.01
2019-04-06T04:40:34.631Z,91.17
2019-04-06T04:42:09.305Z,91.28
2019-04-06T04:43:45.328Z,91.50
2019-04-06T04:45:20.300Z,91.28
2019-04-06T04:46:55.009Z,90.55
2019-04-06T04:48:30.119Z,90.90
2019-04-06T04:50:05.122Z,90.57
2019-04-06T04:51:39.989Z,91.07
2019-04-06T04:53:14.689Z,91.35
2019-04-06T04:54:49.331Z,91.27
2019-04-06T04:56:23.966Z,91.71
2019-04-06T04:57:58.655Z,91.51
2019-04-06T04:59:33.315Z,91.54
2019-04-06T05:01:07.955Z,91.16
2019-04-06T05:02:42.609Z,91.03
2019-04-06T05:04:17.496Z,91.03
2019-04-06T05:05:52.180Z,90.77
2019-04-06T05:07:26.823Z,89.96
2019-04-06T05:09:01.682Z,89.43
2019-04-06T05:10:36.542Z,89.83
2019-04-06T05:12:11.197Z,89.71
2019-04-06T05:13:45.838Z,90.11
2019-04-06T05:15:35.938Z,89.98
2019-04-06T05:17:10.581Z,89.54
2019-04-06T05:18:45.233Z,89.67
2019-04-06T05:20:19.899Z,89.01
2019-04-06T05:21:54.558Z,88.10
2019-04-06T05:23:29.215Z,88.58
2019-04-06T05:25:03.951Z,88.33
2019-04-06T05:26:38.596Z,88.20
2019-04-06T05:28:13.253Z,88.97
2019-04-06T05:29:48.062Z,87.49
2019-04-06T05:31:22.730Z,86.35
2019-04-06T05:32:57.393Z,86.69
2019-04-06T05:34:32.115Z,86.73
2019-04-06T05:36:07.275Z,87.25
2019-04-06T05:37:42.033Z,86.57
2019-04-06T05:39:16.685Z,85.94
2019-04-06T05:40:51.416Z,84.89
2019-04-06T05:42:26.085Z,84.03
2019-04-06T05:44:00.831Z,83.23
2019-04-06T05:45:35.482Z,84.49
2019-04-06T05:47:10.210Z,83.46
2019-04-06T05:48:44.885Z,82.21
2019-04-06T05:50:19.727Z,82.32
2019-04-06T05:51:54.587Z,80.97
2019-04-06T05:53:29.262Z,78.11
2019-04-06T05:55:03.971Z,78.08
2019-04-06T05:56:38.733Z,78.55
2019-04-06T05:58:13.388Z,77.74
2019-04-06T05:59:48.135Z,78.40
2019-04-06T06:01:22.754Z,76.72
2019-04-06T06:02:57.449Z,74.22
2019-04-06T06:04:32.136Z,71.60
2019-04-06T06:06:06.797Z,69.75
2019-04-06T06:07:41.515Z,70.96
2019-04-06T06:09:16.168Z,67.69
2019-04-06T06:10:50.948Z,67.16
2019-04-06T06:12:25.735Z,68.10
2019-04-06T06:14:00.405Z,68.43
2019-04-06T06:15:35.046Z,64.92
2019-04-06T06:17:09.734Z,63.27
2019-04-06T06:18:44.548Z,62.80
2019-04-06T06:20:19.335Z,62.16
2019-04-06T06:21:54.052Z,61.81
2019-04-06T06:23:28.948Z,59.80
2019-04-06T06:25:03.921Z,62.10
2019-04-06T06:26:38.704Z,62.10
2019-04-06T06:28:15.398Z,61.93
2019-04-06T06:29:50.932Z,61.03
2019-04-06T06:31:25.720Z,59.37
2019-04-06T06:33:00.377Z,58.96
2019-04-06T06:34:35.058Z,56.29
2019-04-06T06:36:09.817Z,55.79
2019-04-06T06:37:44.486Z,55.67
2019-04-06T06:39:19.152Z,57.99
2019-04-06T06:40:53.801Z,55.07
2019-04-06T06:42:28.503Z,55.07
2019-04-06T06:44:03.242Z,53.41
2019-04-06T06:45:38.193Z,53.41
2019-04-06T06:47:12.863Z,55.94
2019-04-06T06:48:47.515Z,55.70
2019-04-06T06:50:22.290Z,51.50
2019-04-06T06:51:57.136Z,51.90
2019-04-06T06:53:31.810Z,51.57
2019-04-06T06:55:08.148Z,49.56
2019-04-06T06:56:42.801Z,52.13
2019-04-06T06:58:25.120Z,48.45
2019-04-06T06:59:53.901Z,51.16
2019-04-06T07:01:28.559Z,57.44
2019-04-06T07:03:03.229Z,53.32
2019-04-06T07:04:37.992Z,54.98
2019-04-06T07:06:12.655Z,51.62
2019-04-06T07:07:47.517Z,48.52
2019-04-06T07:09:22.193Z,52.21
2019-04-06T07:10:56.826Z,53.37
2019-04-06T07:12:31.532Z,53.33
2019-04-06T07:14:07.376Z,51.18
2019-04-06T07:15:43.402Z,51.29
2019-04-06T07:17:18.198Z,52.79
2019-04-06T07:18:52.855Z,47.64
2019-04-06T07:20:27.502Z,48.34
2019-04-06T07:22:02.181Z,49.33
2019-04-06T07:23:36.840Z,49.60
2019-04-06T07:25:11.588Z,48.01
2019-04-06T07:26:46.256Z,49.76
2019-04-06T07:28:21.232Z,46.19
2019-04-06T07:29:55.869Z,46.19
2019-04-06T07:31:30.673Z,44.79
2019-04-06T07:33:05.372Z,39.84
2019-04-06T07:34:40.027Z,42.09
2019-04-06T07:36:14.710Z,45.25
2019-04-06T07:37:49.374Z,42.32
2019-04-06T07:39:24.060Z,48.28
2019-04-06T07:40:58.708Z,53.18
2019-04-06T07:42:33.387Z,47.66
2019-04-06T07:44:08.009Z,55.32
2019-04-06T07:45:42.678Z,54.66
2019-04-06T07:47:17.344Z,46.68
2019-04-06T07:48:51.996Z,48.05
2019-04-06T07:50:26.716Z,45.21
2019-04-06T07:52:01.409Z,58.17
2019-04-06T07:53:36.046Z,52.15
2019-04-06T07:55:10.910Z,48.28
2019-04-06T07:56:45.620Z,51.37
2019-04-06T07:58:20.468Z,55.38
2019-04-06T07:59:55.208Z,54.47
2019-04-06T08:01:29.857Z,54.47
2019-04-06T08:03:04.767Z,54.59
2019-04-06T08:04:39.483Z,58.16
2019-04-06T08:06:14.190Z,57.21
2019-04-06T08:07:48.857Z,54.89
2019-04-06T08:09:23.536Z,54.89
2019-04-06T08:10:58.238Z,60.21
2019-04-06T08:12:32.905Z,60.21
2019-04-06T08:14:07.567Z,62.15
2019-04-06T08:15:42.243Z,62.88
2019-04-06T08:17:16.911Z,53.59
2019-04-06T08:18:52.586Z,54.36
2019-04-06T08:20:27.249Z,54.21
2019-04-06T08:22:01.917Z,57.25
2019-04-06T08:23:36.630Z,56.08
2019-04-06T08:25:11.533Z,55.79
2019-04-06T08:26:46.632Z,53.61
2019-04-06T08:28:22.516Z,53.48
2019-04-06T08:29:57.215Z,49.86
2019-04-06T08:31:32.045Z,55.42
2019-04-06T08:33:06.777Z,55.34
2019-04-06T08:34:41.436Z,53.37
2019-04-06T08:36:16.111Z,51.76
2019-04-06T08:37:50.798Z,48.19
2019-04-06T08:39:26.825Z,50.53
2019-04-06T08:41:01.827Z,47.20
2019-04-06T08:42:36.631Z,52.82
2019-04-06T08:44:12.334Z,54.93
2019-04-06T08:45:47.095Z,51.87
2019-04-06T08:47:21.847Z,51.87
2019-04-06T08:48:56.498Z,48.90
2019-04-06T08:50:31.298Z,50.95
2019-04-06T08:52:06.029Z,52.25
2019-04-06T08:53:40.901Z,53.28
2019-04-06T08:55:15.994Z,52.59
2019-04-06T08:56:50.753Z,52.71
2019-04-06T08:58:25.428Z,55.43
2019-04-06T09:00:00.254Z,48.51
2019-04-06T09:01:34.997Z,47.61
2019-04-06T09:03:11.338Z,48.33
2019-04-06T09:04:45.949Z,51.81
2019-04-06T09:06:20.881Z,49.48
2019-04-06T09:07:55.651Z,48.83
2019-04-06T09:09:30.293Z,46.53
2019-04-06T09:11:05.123Z,52.02
2019-04-06T09:12:39.777Z,53.32
2019-04-06T09:14:14.435Z,51.67
2019-04-06T09:15:49.131Z,51.25
2019-04-06T09:17:23.786Z,46.72
2019-04-06T09:18:58.582Z,49.90
2019-04-06T09:20:33.269Z,51.66
2019-04-06T09:22:07.905Z,53.07
2019-04-06T09:23:42.777Z,52.37
2019-04-06T09:25:17.514Z,51.95
2019-04-06T09:26:52.178Z,51.79
2019-04-06T09:28:26.827Z,49.37
2019-04-06T09:30:03.260Z,52.41
2019-04-06T09:31:38.168Z,53.76
2019-04-06T09:33:14.096Z,50.83
2019-04-06T09:34:48.941Z,50.37
2019-04-06T09:36:23.894Z,48.19
2019-04-06T09:37:58.810Z,50.56
2019-04-06T09:39:33.478Z,52.57
2019-04-06T09:41:08.242Z,51.11
2019-04-06T09:42:43.033Z,52.73
2019-04-06T09:44:43.391Z,51.87
2019-04-06T09:46:43.097Z,53.03
2019-04-06T09:48:24.448Z,49.50
2019-04-06T09:50:17.768Z,51.54
2019-04-06T09:52:03.407Z,53.29
2019-04-06T09:54:05.168Z,53.13
2019-04-06T09:55:49.481Z,52.46
2019-04-06T09:57:46.216Z,52.52
2019-04-06T09:59:38.767Z,56.67
2019-04-06T10:01:38.783Z,53.42
2019-04-06T10:03:33.372Z,51.21
2019-04-06T10:05:27.226Z,50.69
2019-04-06T10:07:17.746Z,53.41
2019-04-06T10:09:10.311Z,51.97
2019-04-06T10:11:03.016Z,52.21
2019-04-06T10:12:56.784Z,54.11
2019-04-06T10:14:49.596Z,51.54
2019-04-06T10:16:40.307Z,52.02
2019-04-06T10:18:30.291Z,51.50
2019-04-06T10:20:14.763Z,51.29
2019-04-06T10:22:08.576Z,52.35
2019-04-06T10:24:01.208Z,51.71
2019-04-06T10:25:44.432Z,54.13
2019-04-06T10:27:50.510Z,52.03
2019-04-06T10:29:53.353Z,50.92
2019-04-06T10:31:56.452Z,52.29
2019-04-06T10:33:48.887Z,54.33
2019-04-06T10:35:47.109Z,53.56
2019-04-06T10:37:39.798Z,55.36
2019-04-06T10:39:26.755Z,56.17
2019-04-06T10:41:11.721Z,54.01
2019-04-06T10:42:55.105Z,50.59
2019-04-06T10:44:49.094Z,51.07
2019-04-06T10:46:42.854Z,50.95
2019-04-06T10:48:39.248Z,54.84
2019-04-06T10:50:36.537Z,55.16
2019-04-06T10:52:26.860Z,54.90
2019-04-06T10:54:18.874Z,55.80
2019-04-06T10:56:12.630Z,54.84
2019-04-06T10:58:05.063Z,55.65
2019-04-06T11:00:02.217Z,55.71
2019-04-06T11:02:02.997Z,57.01
2019-04-06T11:03:52.317Z,55.98
2019-04-06T11:05:32.526Z,56.36
2019-04-06T11:07:24.362Z,54.37
2019-04-06T11:09:19.554Z,53.49
2019-04-06T11:11:28.422Z,55.07
2019-04-06T11:13:31.697Z,57.42
2019-04-06T11:15:28.959Z,56.22
2019-04-06T11:17:20.971Z,56.74
2019-04-06T11:19:03.314Z,56.31
2019-04-06T11:20:48.626Z,56.32
2019-04-06T11:22:42.284Z,55.24
2019-04-06T11:24:34.651Z,57.74
2019-04-06T11:26:37.787Z,57.44
2019-04-06T11:28:40.751Z,56.65
2019-04-06T11:30:24.047Z,56.29
2019-04-06T11:32:23.544Z,56.11
2019-04-06T11:34:14.723Z,57.19
2019-04-06T11:36:11.596Z,56.25
2019-04-06T11:38:14.854Z,58.35
2019-04-06T11:40:07.163Z,58.57
2019-04-06T11:41:59.854Z,58.33
2019-04-06T11:43:59.585Z,59.99
2019-04-06T11:45:51.052Z,57.80
2019-04-06T11:47:44.722Z,59.37
2019-04-06T11:49:38.392Z,58.86
2019-04-06T11:51:34.499Z,57.61
2019-04-06T11:53:17.984Z,57.17
2019-04-06T11:55:05.034Z,58.00
2019-04-06T11:57:04.810Z,58.00
2019-04-06T11:58:47.598Z,58.43
2019-04-06T12:00:41.526Z,60.01
2019-04-06T12:02:38.886Z,60.01
2019-04-06T12:04:26.073Z,60.34
2019-04-06T12:06:18.670Z,58.71
2019-04-06T12:08:16.386Z,59.40
2019-04-06T12:10:11.613Z,57.70
2019-04-06T12:12:01.765Z,58.84
2019-04-06T12:13:46.231Z,59.26
2019-04-06T12:15:49.315Z,60.15
2019-04-06T12:17:29.786Z,60.15
2019-04-06T12:19:11.957Z,58.58
2019-04-06T12:21:04.988Z,57.63
2019-04-06T12:22:52.542Z,57.50
2019-04-06T12:24:35.360Z,58.11
2019-04-06T12:26:35.125Z,56.54
2019-04-06T12:28:20.920Z,57.54
2019-04-06T12:30:16.760Z,57.54
2019-04-06T12:32:16.317Z,57.73
2019-04-06T12:34:10.045Z,56.83
2019-04-06T12:36:12.887Z,55.69
2019-04-06T12:38:10.235Z,55.88
2019-04-06T12:39:55.801Z,55.87
2019-04-06T12:42:01.775Z,56.48
2019-04-06T12:43:55.497Z,57.41
2019-04-06T12:46:03.774Z,56.62
2019-04-06T12:47:54.620Z,56.29
2019-04-06T12:49:43.136Z,55.56
2019-04-06T12:51:34.932Z,55.78
2019-04-06T12:53:28.218Z,55.86
2019-04-06T12:55:11.607Z,56.27
2019-04-06T12:57:08.645Z,56.31
2019-04-06T12:58:48.745Z,55.68
2019-04-06T13:01:00.835Z,55.48
2019-04-06T13:02:57.634Z,56.88
2019-04-06T13:04:52.370Z,56.71
2019-04-06T13:07:01.336Z,55.57
2019-04-06T13:08:52.496Z,54.94
2019-04-06T13:10:53.435Z,56.41
2019-04-06T13:12:52.942Z,56.58
2019-04-06T13:14:42.518Z,56.96
2019-04-06T13:16:38.013Z,56.48
2019-04-06T13:18:32.005Z,57.13
2019-04-06T13:20:15.362Z,56.95
2019-04-06T13:21:59.657Z,56.38
2019-04-06T13:23:48.723Z,56.52
2019-04-06T13:25:40.217Z,55.51
2019-04-06T13:27:21.124Z,55.58
2019-04-06T13:29:13.765Z,55.88
2019-04-06T13:31:02.669Z,55.70
2019-04-06T13:33:07.201Z,56.48
2019-04-06T13:34:54.470Z,56.86
2019-04-06T13:36:51.224Z,55.67
2019-04-06T13:38:44.932Z,56.18
2019-04-06T13:40:41.751Z,56.55
2019-04-06T13:42:44.276Z,56.24
2019-04-06T13:44:37.003Z,56.03
2019-04-06T13:46:27.358Z,55.12
2019-04-06T13:48:14.048Z,55.00
2019-04-06T13:50:00.885Z,55.05
2019-04-06T13:52:04.054Z,56.23
2019-04-06T13:53:56.303Z,56.14
2019-04-06T13:55:53.036Z,55.85
2019-04-06T13:57:35.524Z,54.25
2019-04-06T13:59:15.595Z,53.83
2019-04-06T14:01:14.942Z,53.80
2019-04-06T14:03:02.300Z,52.88
2019-04-06T14:04:59.337Z,53.30
2019-04-06T14:07:02.550Z,52.66
2019-04-06T14:08:43.475Z,53.04
2019-04-06T14:10:40.008Z,53.06
2019-04-06T14:12:32.867Z,53.03
2019-04-06T14:14:38.917Z,52.27
2019-04-06T14:16:22.213Z,52.40
2019-04-06T14:18:25.491Z,52.79
2019-04-06T14:20:18.235Z,53.27
2019-04-06T14:22:08.210Z,53.19
2019-04-06T14:24:05.327Z,53.06
2019-04-06T14:26:07.131Z,53.36
2019-04-06T14:28:08.947Z,53.29
2019-04-06T14:30:05.805Z,53.38
2019-04-06T14:31:55.304Z,53.41
2019-04-06T14:33:40.303Z,53.37
2019-04-06T14:35:52.317Z,52.95
2019-04-06T14:37:46.070Z,53.19
2019-04-06T14:39:49.101Z,53.36
2019-04-06T14:41:48.673Z,53.32
2019-04-06T14:43:41.192Z,52.28
2019-04-06T14:45:37.858Z,51.85
2019-04-06T14:47:31.377Z,51.52
2019-04-06T14:49:34.517Z,51.72
2019-04-06T14:51:27.364Z,51.60
2019-04-06T14:53:21.132Z,51.42
2019-04-06T14:55:13.260Z,51.19
2019-04-06T14:56:57.195Z,51.59
2019-04-06T14:58:53.769Z,51.59
2019-04-06T15:00:38.796Z,50.96
2019-04-06T15:02:38.720Z,49.58
2019-04-06T15:04:28.389Z,49.47
2019-04-06T15:06:18.102Z,49.27
2019-04-06T15:08:11.815Z,49.11
2019-04-06T15:10:15.167Z,49.22
2019-04-06T15:11:59.470Z,49.44
2019-04-06T15:13:43.785Z,49.44
2019-04-06T15:15:42.817Z,48.91
2019-04-06T15:17:26.720Z,48.89
2019-04-06T15:19:17.399Z,48.35
2019-04-06T15:21:00.704Z,48.31
2019-04-06T15:22:52.039Z,48.30
2019-04-06T15:24:36.280Z,48.49
2019-04-06T15:26:27.213Z,48.09
2019-04-06T15:28:24.058Z,47.82
2019-04-06T15:30:25.798Z,48.00
2019-04-06T15:32:20.182Z,47.33
2019-04-06T15:34:09.702Z,46.96
2019-04-06T15:36:09.199Z,46.51
2019-04-06T15:37:55.819Z,46.66
2019-04-06T15:40:01.283Z,46.54
2019-04-06T15:41:56.122Z,46.65
2019-04-06T15:43:53.035Z,46.17
2019-04-06T15:45:46.663Z,46.14
2019-04-06T15:47:34.538Z,46.27
2019-04-06T15:49:28.201Z,46.44
2019-04-06T15:51:20.919Z,45.93
2019-04-06T15:53:29.663Z,46.42
2019-04-06T15:55:17.141Z,46.41
2019-04-06T15:57:11.293Z,46.39
2019-04-06T15:59:03.526Z,46.27
2019-04-06T16:01:00.375Z,45.97
2019-04-06T16:03:06.177Z,46.46
2019-04-06T16:04:50.484Z,46.46
2019-04-06T16:06:31.713Z,46.15
2019-04-06T16:08:14.647Z,45.93
2019-04-06T16:10:01.072Z,46.13
2019-04-06T16:11:54.950Z,45.57
2019-04-06T16:13:40.268Z,45.57
2019-04-06T16:15:32.961Z,45.08
2019-04-06T16:17:42.262Z,45.40
2019-04-06T16:19:41.711Z,45.56
2019-04-06T16:21:50.663Z,45.38
2019-04-06T16:23:33.826Z,45.69
2019-04-06T16:25:24.215Z,45.55
2019-04-06T16:27:33.333Z,45.64
2019-04-06T16:29:25.413Z,46.26
2019-04-06T16:31:19.223Z,46.18
2019-04-06T16:33:11.302Z,46.59
2019-04-06T16:34:59.997Z,45.94
2019-04-06T16:36:48.948Z,46.02
2019-04-06T16:38:36.287Z,46.43
2019-04-06T16:40:32.786Z,46.60
2019-04-06T16:42:41.954Z,46.33
2019-04-06T16:44:37.106Z,46.85
2019-04-06T16:46:27.952Z,46.85
2019-04-06T16:48:36.893Z,46.82
2019-04-06T16:50:18.886Z,47.13
2019-04-06T16:52:15.272Z,47.74
2019-04-06T16:53:55.733Z,47.74
2019-04-06T16:55:37.250Z,47.81
2019-04-06T16:57:29.132Z,47.71
2019-04-06T16:59:11.059Z,48.00
2019-04-06T17:01:14.082Z,48.11
2019-04-06T17:02:57.133Z,48.52
2019-04-06T17:04:51.578Z,48.64
2019-04-06T17:06:44.226Z,48.59
2019-04-06T17:08:34.377Z,48.20
2019-04-06T17:10:26.398Z,48.44
2019-04-06T17:12:09.658Z,48.55
2019-04-06T17:14:06.649Z,50.26
2019-04-06T17:15:59.305Z,50.26
2019-04-06T17:17:59.060Z,49.61
2019-04-06T17:20:01.398Z,49.63
2019-04-06T17:21:58.149Z,49.50
2019-04-06T17:23:57.641Z,50.27
2019-04-06T17:25:54.626Z,49.82
2019-04-06T17:27:45.575Z,49.99
2019-04-06T17:29:26.985Z,50.66
2019-04-06T17:31:29.870Z,51.25
2019-04-06T17:33:19.830Z,50.73
2019-04-06T17:35:04.573Z,50.97
2019-04-06T17:36:46.949Z,51.43
2019-04-06T17:38:41.657Z,51.10
2019-04-06T17:40:32.958Z,51.25
2019-04-06T17:42:26.200Z,51.68
2019-04-06T17:44:18.845Z,51.78
2019-04-06T17:46:02.357Z,52.60
2019-04-06T17:48:05.345Z,52.80
2019-04-06T17:50:07.986Z,53.14
2019-04-06T17:51:51.900Z,53.67
2019-04-06T17:53:51.303Z,53.82
2019-04-06T17:55:44.608Z,53.80
2019-04-06T17:57:30.525Z,54.32
2019-04-06T17:59:23.039Z,54.38
2019-04-06T18:01:13.577Z,54.57
2019-04-06T18:02:58.660Z,54.78
2019-04-06T18:04:49.283Z,55.08
2019-04-06T18:06:34.927Z,55.08
2019-04-06T18:08:31.414Z,55.17
2019-04-06T18:10:24.436Z,55.15
2019-04-06T18:12:21.092Z,55.34
2019-04-06T18:13:56.244Z,56.07
2019-04-06T18:15:31.527Z,56.39
2019-04-06T18:17:06.390Z,56.77
2019-04-06T18:18:41.034Z,57.01
2019-04-06T18:20:16.214Z,57.81
2019-04-06T18:21:51.032Z,57.81
2019-04-06T18:23:25.653Z,58.87
2019-04-06T18:25:00.311Z,59.40
2019-04-06T18:26:35.013Z,59.87
2019-04-06T18:28:11.625Z,59.37
2019-04-06T18:29:46.517Z,59.83
2019-04-06T18:31:28.218Z,59.68
2019-04-06T18:33:15.608Z,59.75
2019-04-06T18:34:50.301Z,59.94
2019-04-06T18:36:29.874Z,60.42
2019-04-06T18:38:24.098Z,60.77
2019-04-06T18:40:00.267Z,60.64
2019-04-06T18:41:36.811Z,61.41
2019-04-06T18:43:11.621Z,61.41
2019-04-06T18:44:46.640Z,62.22
2019-04-06T18:46:21.303Z,62.22
2019-04-06T18:47:56.109Z,61.74
2019-04-06T18:49:30.772Z,61.71
2019-04-06T18:51:05.904Z,62.85
2019-04-06T18:52:40.884Z,62.17
2019-04-06T18:54:15.542Z,62.17
2019-04-06T18:55:50.198Z,62.93
2019-04-06T18:57:25.335Z,63.08
2019-04-06T18:59:00.099Z,63.34
2019-04-06T19:00:34.773Z,63.34
2019-04-06T19:02:09.743Z,64.25
2019-04-06T19:03:45.112Z,64.80
2019-04-06T19:05:19.795Z,64.80
2019-04-06T19:06:54.564Z,64.79
2019-04-06T19:08:29.663Z,64.79
2019-04-06T19:10:05.828Z,65.58
2019-04-06T19:11:42.024Z,66.71
2019-04-06T19:13:18.271Z,66.71
2019-04-06T19:14:53.213Z,66.39
2019-04-06T19:16:27.900Z,66.83
2019-04-06T19:18:02.707Z,66.89
2019-04-06T19:19:37.443Z,67.18
2019-04-06T19:21:12.160Z,66.22
2019-04-06T19:22:46.871Z,66.94
2019-04-06T19:24:21.554Z,67.49
2019-04-06T19:25:56.722Z,67.48
2019-04-06T19:27:31.460Z,67.63
2019-04-06T19:29:06.184Z,68.05
2019-04-06T19:30:40.831Z,67.83
2019-04-06T19:32:15.847Z,67.83
2019-04-06T19:33:50.533Z,67.00
2019-04-06T19:35:26.193Z,67.00
2019-04-06T19:37:00.941Z,67.89
2019-04-06T19:38:35.661Z,67.90
2019-04-06T19:40:10.631Z,67.82
2019-04-06T19:41:45.299Z,66.54
2019-04-06T19:43:19.959Z,67.61
2019-04-06T19:44:54.670Z,66.45
2019-04-06T19:46:29.491Z,67.37
2019-04-06T19:48:04.307Z,67.50
2019-04-06T19:49:38.991Z,66.74
2019-04-06T19:51:13.721Z,67.39
2019-04-06T19:52:49.631Z,67.39
2019-04-06T19:54:24.265Z,65.52
2019-04-06T19:55:58.905Z,65.68
2019-04-06T19:57:33.917Z,65.68
2019-04-06T19:59:08.762Z,65.42
2019-04-06T20:00:43.540Z,64.40
2019-04-06T20:02:18.766Z,64.40
2019-04-06T20:03:53.378Z,65.08
2019-04-06T20:05:28.587Z,65.95
2019-04-06T20:07:03.725Z,65.89
2019-04-06T20:08:38.504Z,65.91
2019-04-06T20:10:13.242Z,66.66
2019-04-06T20:11:47.893Z,66.67
2019-04-06T20:13:22.576Z,65.64
2019-04-06T20:14:57.306Z,65.36
2019-04-06T20:16:33.326Z,65.15
2019-04-06T20:18:08.126Z,65.15
2019-04-06T20:19:42.897Z,66.42
2019-04-06T20:21:17.643Z,66.42
2019-04-06T20:22:52.748Z,65.91
2019-04-06T20:24:27.576Z,66.28
2019-04-06T20:26:02.437Z,66.28
2019-04-06T20:27:37.881Z,66.48
2019-04-06T20:29:13.935Z,66.76
2019-04-06T20:30:48.847Z,66.56
2019-04-06T20:32:23.534Z,66.77
2019-04-06T20:33:58.532Z,66.50
2019-04-06T20:35:33.273Z,66.66
2019-04-06T20:37:08.429Z,65.81
2019-04-06T20:38:43.455Z,66.78
2019-04-06T20:40:18.454Z,67.55
2019-04-06T20:41:53.139Z,67.18
2019-04-06T20:43:27.802Z,67.18
2019-04-06T20:45:02.824Z,66.80
2019-04-06T20:46:37.868Z,66.94
2019-04-06T20:48:12.984Z,66.94
2019-04-06T20:49:47.639Z,66.20
2019-04-06T20:51:23.595Z,66.20
2019-04-06T20:52:58.238Z,66.23
2019-04-06T20:54:33.871Z,65.54
2019-04-06T20:56:08.537Z,64.74
2019-04-06T20:57:43.825Z,63.58
2019-04-06T20:59:18.530Z,63.52
2019-04-06T21:00:53.217Z,61.72
2019-04-06T21:02:27.880Z,60.62
2019-04-06T21:04:03.240Z,60.09
2019-04-06T21:05:38.336Z,58.87
2019-04-06T21:07:12.943Z,59.05
2019-04-06T21:08:48.080Z,57.84
2019-04-06T21:10:22.791Z,57.34
2019-04-06T21:11:57.501Z,56.79
2019-04-06T21:13:32.432Z,56.79
2019-04-06T21:15:17.036Z,56.27
2019-04-06T21:16:44.751Z,56.73
2019-04-06T21:18:19.689Z,56.09
2019-04-06T21:19:55.011Z,56.39
2019-04-06T21:21:30.293Z,56.33
2019-04-06T21:23:05.126Z,55.49
2019-04-06T21:24:40.320Z,56.74
2019-04-06T21:26:15.007Z,57.08
2019-04-06T21:27:49.680Z,56.28
2019-04-06T21:29:24.382Z,56.59
2019-04-06T21:31:00.117Z,56.53
2019-04-06T21:32:34.849Z,57.21
2019-04-06T21:34:13.309Z,56.75
2019-04-06T21:35:45.895Z,56.78
2019-04-06T21:37:21.143Z,57.25
2019-04-06T21:38:56.095Z,56.76
2019-04-06T21:40:30.752Z,56.67
2019-04-06T21:42:05.702Z,55.81
2019-04-06T21:43:40.463Z,55.40
2019-04-06T21:45:15.309Z,55.40
2019-04-06T21:46:49.969Z,55.60
2019-04-06T21:48:24.893Z,55.56